createdAt,value
2023-01-01T00:00:41.329Z,382.40
2023-01-01T00:03:08.900Z,353.47
2023-01-01T00:05:39.370Z,356.33
2023-01-01T00:08:07.030Z,361.23
2023-01-01T00:10:34.437Z,330.33
2023-01-01T00:13:01.448Z,321.97
2023-01-01T00:15:29.002Z,311.23
2023-01-01T00:17:56.649Z,320.93
2023-01-01T00:20:25.234Z,314.77
2023-01-01T00:22:56.054Z,281.47
2023-01-01T00:25:25.180Z,310.83
2023-01-01T00:27:52.544Z,270.57
2023-01-01T00:30:19.586Z,287.50
2023-01-01T00:32:54.954Z,266.53
2023-01-01T00:35:25.957Z,256.37
2023-01-01T00:37:54.226Z,247.30
2023-01-01T00:40:21.721Z,249.17
2023-01-01T00:42:48.667Z,240.97
2023-01-01T00:45:20.849Z,238.63
2023-01-01T00:47:48.895Z,230.03
2023-01-01T00:50:16.453Z,212.73
2023-01-01T00:52:43.660Z,217.13
2023-01-01T00:55:11.865Z,183.77
2023-01-01T00:57:38.877Z,159.57
2023-01-01T01:00:07.316Z,162.17
2023-01-01T01:02:35.008Z,132.07
2023-01-01T01:05:03.752Z,121.80
2023-01-01T01:07:38.243Z,119.43
2023-01-01T01:10:06.353Z,157.87
2023-01-01T01:12:35.090Z,172.07
2023-01-01T01:15:03.336Z,164.53
2023-01-01T01:17:30.356Z,153.20
2023-01-01T01:19:57.414Z,155.93
2023-01-01T01:22:28.565Z,138.77
2023-01-01T01:24:57.389Z,130.70
2023-01-01T01:27:24.823Z,137.33
2023-01-01T01:29:52.812Z,137.80
2023-01-01T01:32:20.819Z,148.67
2023-01-01T01:34:49.132Z,140.73
2023-01-01T01:37:16.338Z,146.73
2023-01-01T01:39:43.303Z,165.57
2023-01-01T01:42:18.309Z,157.87
2023-01-01T01:44:54.273Z,138.40
2023-01-01T01:47:26.681Z,156.17
2023-01-01T01:50:12.411Z,150.73
2023-01-01T01:53:05.792Z,152.17
2023-01-01T01:55:40.435Z,167.20
2023-01-01T01:58:11.915Z,140.07
2023-01-01T02:00:38.992Z,146.87
2023-01-01T02:03:32.744Z,154.90
2023-01-01T02:06:00.416Z,149.43
2023-01-01T02:08:28.826Z,179.83
2023-01-01T02:10:56.365Z,192.30
2023-01-01T02:13:23.384Z,190.23
2023-01-01T02:15:56.413Z,179.23
2023-01-01T02:19:03.081Z,174.80
2023-01-01T02:22:17.601Z,175.50
2023-01-01T02:24:53.527Z,175.80
2023-01-01T02:27:58.000Z,174.03
2023-01-01T02:30:25.608Z,176.33
2023-01-01T02:33:01.400Z,168.07
2023-01-01T02:35:34.892Z,158.20
2023-01-01T02:38:32.730Z,162.37
2023-01-01T02:41:19.224Z,158.63
2023-01-01T02:43:46.899Z,150.13
2023-01-01T02:48:52.346Z,143.40
2023-01-01T02:51:40.347Z,155.07
2023-01-01T02:54:19.383Z,160.03
2023-01-01T02:57:04.823Z,154.87
2023-01-01T03:00:15.323Z,159.90
2023-01-01T03:03:39.265Z,172.03
2023-01-01T03:06:23.085Z,160.03
2023-01-01T03:09:05.172Z,161.10
2023-01-01T03:12:01.537Z,155.43
2023-01-01T03:14:40.181Z,149.33
2023-01-01T03:17:29.300Z,152.07
2023-01-01T03:20:01.384Z,162.07
2023-01-01T03:25:15.125Z,175.27
2023-01-01T03:27:48.976Z,149.27
2023-01-01T03:30:19.961Z,155.50
2023-01-01T03:33:03.637Z,148.90
2023-01-01T03:35:40.097Z,157.57
2023-01-01T03:38:18.990Z,146.77
2023-01-01T03:40:52.062Z,166.07
2023-01-01T03:43:47.202Z,157.00
2023-01-01T03:46:17.933Z,161.23
2023-01-01T03:49:02.707Z,164.23
2023-01-01T03:52:10.003Z,163.77
2023-01-01T03:54:39.620Z,157.30
2023-01-01T03:57:16.457Z,166.80
2023-01-01T04:00:09.374Z,172.03
2023-01-01T04:03:02.684Z,177.83
2023-01-01T04:05:33.590Z,154.33
2023-01-01T04:08:03.852Z,171.53
2023-01-01T04:10:34.982Z,156.67
2023-01-01T04:13:05.461Z,166.47
2023-01-01T04:15:36.190Z,150.93
2023-01-01T04:18:03.496Z,166.93
2023-01-01T04:20:30.968Z,166.30
2023-01-01T04:23:00.109Z,182.07
2023-01-01T04:25:29.135Z,165.33
2023-01-01T04:27:56.239Z,159.03
2023-01-01T04:30:23.156Z,161.83
2023-01-01T04:32:50.249Z,156.83
2023-01-01T04:35:17.432Z,153.30
2023-01-01T04:37:45.991Z,155.97
2023-01-01T04:40:14.610Z,156.00
2023-01-01T04:42:43.599Z,153.80
2023-01-01T04:45:15.255Z,149.77
2023-01-01T04:47:42.972Z,149.63
2023-01-01T04:50:10.812Z,147.53
2023-01-01T04:52:38.076Z,153.60
2023-01-01T04:55:06.127Z,138.63
2023-01-01T04:57:33.133Z,164.90
2023-01-01T05:00:00.180Z,148.40
2023-01-01T05:02:27.550Z,143.67
2023-01-01T05:04:54.630Z,152.43
2023-01-01T05:07:21.610Z,147.47
2023-01-01T05:09:48.505Z,141.33
2023-01-01T05:12:15.547Z,148.27
2023-01-01T05:14:42.576Z,162.23
2023-01-01T05:17:09.627Z,153.90
2023-01-01T05:19:36.606Z,160.93
2023-01-01T05:22:10.190Z,147.23
2023-01-01T05:24:38.040Z,135.87
2023-01-01T05:27:05.047Z,161.50
2023-01-01T05:29:32.048Z,147.37
2023-01-01T05:31:59.081Z,138.70
2023-01-01T05:34:27.562Z,151.13
2023-01-01T05:36:54.710Z,150.03
2023-01-01T05:39:21.740Z,148.37
2023-01-01T05:41:48.786Z,138.37
2023-01-01T05:44:17.440Z,147.97
2023-01-01T05:46:44.594Z,147.03
2023-01-01T05:49:12.882Z,140.27
2023-01-01T05:54:06.535Z,144.27
2023-01-01T05:56:33.536Z,139.90
2023-01-01T05:59:00.488Z,134.37
2023-01-01T06:01:31.373Z,139.00
2023-01-01T06:03:59.990Z,136.60
2023-01-01T06:06:33.410Z,138.40
2023-01-01T06:09:04.250Z,135.47
2023-01-01T06:11:32.418Z,120.30
2023-01-01T06:14:01.388Z,125.93
2023-01-01T06:16:31.996Z,201.67
2023-01-01T06:19:00.165Z,128.05
2023-01-01T06:21:29.143Z,130.90
2023-01-01T06:23:58.743Z,131.20
2023-01-01T06:26:30.763Z,140.07
2023-01-01T06:28:59.399Z,132.50
2023-01-01T06:31:28.369Z,131.20
2023-01-01T06:33:55.590Z,141.37
2023-01-01T06:36:24.494Z,134.40
2023-01-01T06:38:56.054Z,132.20
2023-01-01T06:41:25.651Z,130.70
2023-01-01T06:43:53.241Z,142.27
2023-01-01T06:46:27.548Z,134.07
2023-01-01T06:48:58.116Z,141.23
2023-01-01T06:51:32.140Z,142.83
2023-01-01T06:54:01.316Z,144.73
2023-01-01T06:56:29.697Z,127.27
2023-01-01T06:58:57.781Z,146.47
2023-01-01T07:01:28.854Z,156.53
2023-01-01T07:04:03.534Z,141.70
2023-01-01T07:06:32.577Z,281.47
2023-01-01T07:08:59.611Z,133.70
2023-01-01T07:11:27.590Z,131.20
2023-01-01T07:13:55.220Z,139.07
2023-01-01T07:16:23.233Z,127.50
2023-01-01T07:18:51.445Z,133.40
2023-01-01T07:21:44.835Z,133.43
2023-01-01T07:24:15.784Z,165.53
2023-01-01T07:26:43.917Z,158.37
2023-01-01T07:29:12.982Z,144.97
2023-01-01T07:31:42.532Z,141.10
2023-01-01T07:34:23.082Z,137.20
2023-01-01T07:36:50.906Z,152.83
2023-01-01T07:39:17.901Z,140.80
2023-01-01T07:41:45.442Z,161.37
2023-01-01T07:44:12.414Z,154.07
2023-01-01T07:46:39.730Z,143.23
2023-01-01T07:49:06.721Z,137.40
2023-01-01T07:51:33.877Z,149.87
2023-01-01T07:54:06.623Z,160.87
2023-01-01T07:56:36.346Z,153.83
2023-01-01T07:59:04.110Z,162.10
2023-01-01T08:01:31.161Z,173.17
2023-01-01T08:03:58.206Z,166.10
2023-01-01T08:06:25.176Z,155.30
2023-01-01T08:08:52.169Z,158.47
2023-01-01T08:11:19.130Z,157.87
2023-01-01T08:13:45.999Z,160.63
2023-01-01T08:16:13.073Z,143.63
2023-01-01T08:18:40.081Z,155.53
2023-01-01T08:21:07.069Z,170.80
2023-01-01T08:23:34.092Z,153.20
2023-01-01T08:26:02.650Z,160.33
2023-01-01T08:28:31.226Z,160.87
2023-01-01T08:30:59.575Z,170.77
2023-01-01T08:33:26.701Z,196.93
2023-01-01T08:35:54.587Z,192.07
2023-01-01T08:38:22.106Z,195.10
2023-01-01T08:40:49.124Z,231.33
2023-01-01T08:43:16.144Z,215.10
2023-01-01T08:45:43.251Z,214.70
2023-01-01T08:48:10.499Z,228.40
2023-01-01T08:50:38.158Z,193.97
2023-01-01T08:53:05.139Z,200.63
2023-01-01T08:55:32.219Z,170.30
2023-01-01T08:57:59.226Z,194.10
2023-01-01T09:00:26.395Z,175.47
2023-01-01T09:02:53.657Z,177.90
2023-01-01T09:05:20.847Z,190.63
2023-01-01T09:07:47.835Z,179.13
2023-01-01T09:10:14.969Z,175.33
2023-01-01T09:12:41.999Z,176.90
2023-01-01T09:15:17.283Z,179.43
2023-01-01T09:17:44.687Z,176.90
2023-01-01T09:20:12.107Z,185.57
2023-01-01T09:22:39.099Z,209.40
2023-01-01T09:25:06.522Z,218.47
2023-01-01T09:27:33.469Z,229.47
2023-01-01T09:30:00.521Z,248.90
2023-01-01T09:32:27.702Z,262.23
2023-01-01T09:34:54.825Z,255.00
2023-01-01T09:37:21.927Z,275.77
2023-01-01T09:39:48.821Z,262.70
2023-01-01T09:43:00.803Z,268.50
2023-01-01T09:45:33.635Z,259.73
2023-01-01T09:48:06.804Z,257.10
2023-01-01T09:50:46.343Z,277.93
2023-01-01T09:53:20.837Z,261.93
2023-01-01T09:56:02.813Z,238.83
2023-01-01T09:58:36.828Z,217.97
2023-01-01T10:01:16.806Z,201.13
2023-01-01T10:03:57.959Z,179.57
2023-01-01T10:06:34.431Z,166.90
2023-01-01T10:09:23.111Z,140.20
2023-01-01T10:12:05.170Z,129.67
2023-01-01T10:14:50.292Z,116.77
2023-01-01T10:17:39.559Z,96.07
2023-01-01T10:20:28.358Z,76.80
2023-01-01T10:23:01.600Z,71.00
2023-01-01T10:25:32.584Z,81.57
2023-01-01T10:28:05.984Z,73.40
2023-01-01T10:30:33.158Z,67.47
2023-01-01T10:33:00.489Z,61.57
2023-01-01T10:35:41.307Z,64.10
2023-01-01T10:38:10.028Z,61.27
2023-01-01T10:40:36.987Z,61.13
2023-01-01T10:43:04.711Z,57.83
2023-01-01T10:45:41.824Z,63.53
2023-01-01T10:48:22.219Z,61.40
2023-01-01T10:51:07.049Z,62.40
2023-01-01T10:53:39.533Z,55.00
2023-01-01T10:56:15.411Z,54.60
2023-01-01T10:58:52.274Z,53.03
2023-01-01T11:01:19.192Z,66.03
2023-01-01T11:03:58.538Z,56.27
2023-01-01T11:06:48.504Z,62.40
2023-01-01T11:09:28.935Z,51.97
2023-01-01T11:12:24.610Z,59.97
2023-01-01T11:14:58.557Z,57.83
2023-01-01T11:17:32.652Z,50.10
2023-01-01T11:20:02.829Z,55.33
2023-01-01T11:22:40.323Z,54.00
2023-01-01T11:25:36.419Z,52.70
2023-01-01T11:28:23.744Z,46.50
2023-01-01T11:31:02.381Z,49.23
2023-01-01T11:33:36.843Z,56.33
2023-01-01T11:36:05.960Z,52.40
2023-01-01T11:38:33.153Z,48.03
2023-01-01T11:41:07.738Z,46.97
2023-01-01T11:43:46.049Z,47.87
2023-01-01T11:46:23.805Z,48.07
2023-01-01T11:48:54.088Z,47.37
2023-01-01T11:51:33.397Z,46.80
2023-01-01T11:54:37.545Z,52.07
2023-01-01T11:57:12.229Z,51.00
2023-01-01T12:00:00.299Z,45.23
2023-01-01T12:02:55.263Z,43.03
2023-01-01T12:05:32.673Z,52.20
2023-01-01T12:08:04.737Z,41.00
2023-01-01T12:10:45.462Z,47.67
2023-01-01T12:13:22.610Z,41.00
2023-01-01T12:15:57.826Z,49.03
2023-01-01T12:18:47.786Z,44.63
2023-01-01T12:21:26.672Z,46.63
2023-01-01T12:23:54.818Z,38.33
2023-01-01T12:26:36.819Z,45.50
2023-01-01T12:29:40.396Z,73.73
2023-01-01T12:32:27.615Z,46.17
2023-01-01T12:35:09.785Z,45.73
2023-01-01T12:38:04.413Z,37.60
2023-01-01T12:41:13.900Z,45.07
2023-01-01T12:44:36.573Z,38.10
2023-01-01T12:47:27.692Z,41.20
2023-01-01T12:50:12.755Z,38.57
2023-01-01T12:53:26.362Z,43.13
2023-01-01T12:56:23.448Z,42.17
2023-01-01T12:59:06.490Z,26.50
2023-01-01T13:01:36.648Z,27.10
2023-01-01T13:04:11.369Z,38.60
2023-01-01T13:06:51.428Z,27.40
2023-01-01T13:09:24.329Z,32.73
2023-01-01T13:11:58.930Z,32.57
2023-01-01T13:14:26.409Z,35.80
2023-01-01T13:16:56.601Z,39.43
2023-01-01T13:19:34.608Z,36.13
2023-01-01T13:22:27.084Z,33.60
2023-01-01T13:25:06.500Z,32.73
2023-01-01T13:27:58.250Z,34.37
2023-01-01T13:30:41.783Z,30.13
2023-01-01T13:33:27.604Z,32.70
2023-01-01T13:36:10.422Z,32.97
2023-01-01T13:38:49.640Z,36.27
2023-01-01T13:41:25.718Z,34.23
2023-01-01T13:44:01.905Z,31.13
2023-01-01T13:46:44.585Z,36.80
2023-01-01T13:49:42.069Z,38.00
2023-01-01T13:52:34.043Z,37.83
2023-01-01T13:55:16.386Z,40.30
2023-01-01T13:58:01.309Z,35.63
2023-01-01T14:00:55.586Z,43.97
2023-01-01T14:03:26.284Z,38.47
2023-01-01T14:06:03.048Z,39.70
2023-01-01T14:08:43.700Z,42.70
2023-01-01T14:11:21.762Z,42.30
2023-01-01T14:13:48.830Z,38.83
2023-01-01T14:16:16.552Z,42.90
2023-01-01T14:18:54.966Z,40.63
2023-01-01T14:21:27.012Z,37.10
2023-01-01T14:24:07.814Z,35.50
2023-01-01T14:26:38.880Z,36.07
2023-01-01T14:29:17.371Z,41.30
2023-01-01T14:31:46.253Z,42.53
2023-01-01T14:34:35.127Z,43.10
2023-01-01T14:37:04.931Z,45.70
2023-01-01T14:39:35.222Z,41.70
2023-01-01T14:42:09.636Z,38.90
2023-01-01T14:44:42.269Z,34.63
2023-01-01T14:47:36.514Z,40.87
2023-01-01T14:50:15.602Z,37.17
2023-01-01T14:52:42.595Z,43.17
2023-01-01T14:55:19.147Z,40.77
2023-01-01T14:57:53.778Z,53.80
2023-01-01T15:00:31.431Z,38.40
2023-01-01T15:03:27.735Z,39.60
2023-01-01T15:06:03.384Z,40.13
2023-01-01T15:08:31.262Z,33.20
2023-01-01T15:10:58.779Z,41.57
2023-01-01T15:13:28.317Z,42.30
2023-01-01T15:16:02.073Z,35.17
2023-01-01T15:18:47.089Z,40.67
2023-01-01T15:21:32.291Z,33.67
2023-01-01T15:24:04.902Z,30.70
2023-01-01T15:26:49.539Z,34.37
2023-01-01T15:29:26.600Z,37.50
2023-01-01T15:32:14.133Z,37.60
2023-01-01T15:34:50.519Z,39.73
2023-01-01T15:37:21.844Z,37.40
2023-01-01T15:40:12.885Z,41.37
2023-01-01T15:42:48.985Z,42.70
2023-01-01T15:45:32.519Z,45.70
2023-01-01T15:48:05.348Z,38.10
2023-01-01T15:50:59.628Z,37.50
2023-01-01T15:53:57.917Z,48.07
2023-01-01T15:56:29.759Z,42.17
2023-01-01T15:59:09.430Z,47.03
2023-01-01T16:01:40.712Z,49.47
2023-01-01T16:04:27.979Z,45.67
2023-01-01T16:06:58.303Z,48.00
2023-01-01T16:09:25.655Z,52.13
2023-01-01T16:12:00.179Z,46.87
2023-01-01T16:14:27.277Z,51.53
2023-01-01T16:17:00.813Z,50.70
2023-01-01T16:19:31.767Z,52.40
2023-01-01T16:21:58.969Z,48.47
2023-01-01T16:24:26.114Z,51.47
2023-01-01T16:26:53.543Z,56.33
2023-01-01T16:29:20.501Z,51.63
2023-01-01T16:31:48.513Z,56.17
2023-01-01T16:34:15.683Z,51.90
2023-01-01T16:36:44.131Z,53.47
2023-01-01T16:39:12.087Z,59.13
2023-01-01T16:41:44.015Z,61.70
2023-01-01T16:44:15.340Z,66.90
2023-01-01T16:46:42.945Z,52.50
2023-01-01T16:49:10.207Z,54.20
2023-01-01T16:51:43.008Z,57.83
2023-01-01T16:54:10.923Z,61.00
2023-01-01T16:56:37.931Z,60.87
2023-01-01T16:59:06.239Z,76.83
2023-01-01T17:01:33.427Z,89.70
2023-01-01T17:04:00.792Z,82.33
2023-01-01T17:06:27.844Z,86.43
2023-01-01T17:08:54.795Z,72.20
2023-01-01T17:11:25.043Z,83.37
2023-01-01T17:13:52.356Z,80.63
2023-01-01T17:16:27.097Z,87.60
2023-01-01T17:21:46.180Z,72.67
2023-01-01T17:24:15.927Z,74.10
2023-01-01T17:26:43.135Z,92.50
2023-01-01T17:29:10.693Z,83.37
2023-01-01T17:31:38.820Z,95.77
2023-01-01T17:34:05.997Z,76.13
2023-01-01T17:36:33.209Z,82.07
2023-01-01T17:39:00.433Z,81.97
2023-01-01T17:41:27.456Z,77.20
2023-01-01T17:43:54.470Z,71.90
2023-01-01T17:46:28.670Z,102.20
2023-01-01T17:48:55.980Z,119.40
2023-01-01T17:51:24.002Z,101.50
2023-01-01T17:53:51.413Z,96.77
2023-01-01T17:56:22.444Z,80.93
2023-01-01T17:58:52.155Z,80.40
2023-01-01T18:01:22.125Z,77.30
2023-01-01T18:03:59.379Z,87.43
2023-01-01T18:06:26.541Z,69.90
2023-01-01T18:09:02.563Z,66.53
2023-01-01T18:11:31.436Z,69.87
2023-01-01T18:14:01.559Z,71.33
2023-01-01T18:16:29.760Z,72.27
2023-01-01T18:18:57.390Z,77.93
2023-01-01T18:21:24.484Z,85.10
2023-01-01T18:23:55.194Z,116.00
2023-01-01T18:26:28.168Z,89.90
2023-01-01T18:28:59.261Z,85.33
2023-01-01T18:31:28.850Z,90.53
2023-01-01T18:33:56.167Z,69.87
2023-01-01T18:36:27.689Z,78.07
2023-01-01T18:39:22.141Z,78.67
2023-01-01T18:41:49.046Z,84.53
2023-01-01T18:44:29.227Z,78.03
2023-01-01T18:47:05.182Z,69.23
2023-01-01T18:49:34.958Z,62.43
2023-01-01T18:52:22.074Z,71.77
2023-01-01T18:55:07.333Z,76.87
2023-01-01T18:57:34.943Z,79.33
2023-01-01T19:00:22.925Z,79.97
2023-01-01T19:03:01.495Z,87.13
2023-01-01T19:05:36.862Z,79.13
2023-01-01T19:08:06.903Z,76.93
2023-01-01T19:10:45.309Z,71.93
2023-01-01T19:13:18.446Z,59.53
2023-01-01T19:15:49.712Z,59.57
2023-01-01T19:18:24.177Z,67.10
2023-01-01T19:21:23.397Z,58.90
2023-01-01T19:23:57.045Z,71.70
2023-01-01T19:26:36.996Z,71.20
2023-01-01T19:29:24.557Z,72.37
2023-01-01T19:31:55.467Z,66.97
2023-01-01T19:34:24.574Z,78.50
2023-01-01T19:36:52.342Z,85.40
2023-01-01T19:39:19.857Z,74.17
2023-01-01T19:41:47.734Z,69.40
2023-01-01T19:44:21.418Z,83.70
2023-01-01T19:46:50.114Z,72.60
2023-01-01T19:49:17.171Z,75.60
2023-01-01T19:51:44.269Z,75.90
2023-01-01T19:54:11.588Z,81.93
2023-01-01T19:56:38.553Z,71.37
2023-01-01T19:59:05.524Z,70.20
2023-01-01T20:01:32.785Z,66.73
2023-01-01T20:04:00.409Z,71.13
2023-01-01T20:06:28.290Z,70.57
2023-01-01T20:08:55.189Z,89.83
2023-01-01T20:11:22.633Z,80.57
2023-01-01T20:13:49.640Z,84.03
2023-01-01T20:16:16.665Z,77.40
2023-01-01T20:18:43.709Z,83.17
2023-01-01T20:21:29.607Z,72.23
2023-01-01T20:23:56.570Z,71.40
2023-01-01T20:26:25.805Z,76.70
2023-01-01T20:29:12.275Z,72.10
2023-01-01T20:31:40.336Z,72.00
2023-01-01T20:34:07.490Z,67.53
2023-01-01T20:36:53.783Z,63.87
2023-01-01T20:39:22.762Z,73.00
2023-01-01T20:41:50.760Z,72.23
2023-01-01T20:44:19.331Z,69.27
2023-01-01T20:46:48.244Z,68.40
2023-01-01T20:49:19.717Z,78.23
2023-01-01T20:51:53.197Z,80.50
2023-01-01T20:54:22.506Z,74.07
2023-01-01T20:56:49.876Z,71.33
2023-01-01T20:59:34.879Z,81.13
2023-01-01T21:02:06.937Z,72.57
2023-01-01T21:04:39.425Z,68.80
2023-01-01T21:07:12.092Z,68.40
2023-01-01T21:09:40.883Z,58.20
2023-01-01T21:12:09.489Z,66.93
2023-01-01T21:14:37.159Z,64.60
2023-01-01T21:17:22.254Z,54.10
2023-01-01T21:20:00.099Z,61.53
2023-01-01T21:22:28.088Z,58.27
2023-01-01T21:25:16.891Z,63.70
2023-01-01T21:27:44.140Z,54.57
2023-01-01T21:30:14.805Z,73.53
2023-01-01T21:32:45.560Z,80.87
2023-01-01T21:35:18.226Z,65.30
2023-01-01T21:37:50.188Z,58.07
2023-01-01T21:40:39.608Z,64.13
2023-01-01T21:43:09.438Z,64.33
2023-01-01T21:45:40.935Z,63.13
2023-01-01T21:48:20.085Z,68.87
2023-01-01T21:50:49.631Z,57.57
2023-01-01T21:53:37.001Z,60.57
2023-01-01T21:56:41.885Z,66.73
2023-01-01T21:59:40.423Z,63.07
2023-01-01T22:02:07.415Z,61.80
2023-01-01T22:04:43.841Z,65.20
2023-01-01T22:07:57.377Z,66.20
2023-01-01T22:10:36.296Z,68.13
2023-01-01T22:13:04.092Z,67.03
2023-01-01T22:15:39.957Z,82.73
2023-01-01T22:18:09.881Z,63.73
2023-01-01T22:20:39.912Z,65.47
2023-01-01T22:23:39.942Z,65.57
2023-01-01T22:26:22.338Z,75.67
2023-01-01T22:29:22.600Z,76.87
2023-01-01T22:32:01.544Z,81.97
2023-01-01T22:34:28.603Z,63.17
2023-01-01T22:36:56.370Z,69.73
2023-01-01T22:39:36.730Z,75.93
2023-01-01T22:42:04.119Z,81.33
2023-01-01T22:44:33.683Z,80.00
2023-01-01T22:47:01.855Z,68.00
2023-01-01T22:49:40.119Z,72.73
2023-01-01T22:52:08.494Z,71.53
2023-01-01T22:54:35.510Z,69.10
2023-01-01T22:57:02.576Z,73.20
2023-01-01T22:59:29.641Z,73.60
2023-01-01T23:01:56.770Z,68.47
2023-01-01T23:04:23.826Z,73.20
2023-01-01T23:06:50.846Z,101.50
2023-01-01T23:09:17.983Z,75.47
2023-01-01T23:11:45.259Z,80.80
2023-01-01T23:14:33.167Z,109.67
2023-01-01T23:17:04.278Z,73.73
2023-01-01T23:19:31.243Z,75.53
2023-01-01T23:22:00.880Z,67.93
2023-01-01T23:24:30.090Z,61.53
2023-01-01T23:26:58.604Z,57.93
2023-01-01T23:29:31.250Z,71.03
2023-01-01T23:32:00.138Z,58.57
2023-01-01T23:34:27.414Z,88.90
2023-01-01T23:36:55.759Z,93.13
2023-01-01T23:39:22.777Z,66.67
2023-01-01T23:41:50.150Z,82.27
2023-01-01T23:44:17.500Z,47.50
2023-01-01T23:46:45.086Z,56.37
2023-01-01T23:49:12.690Z,55.13
2023-01-01T23:51:40.244Z,52.73
2023-01-01T23:54:07.590Z,51.60
2023-01-01T23:56:34.619Z,63.63
2023-01-01T23:59:01.781Z,43.00
